createdAt,value
2017-12-23T00:00:33.592Z,18.23
2017-12-23T00:03:01.240Z,18.47
2017-12-23T00:05:28.860Z,18.43
2017-12-23T00:07:56.394Z,17.17
2017-12-23T00:10:24.704Z,19.10
2017-12-23T00:12:52.232Z,19.90
2017-12-23T00:15:20.614Z,20.87
2017-12-23T00:17:48.939Z,20.47
2017-12-23T00:20:16.687Z,20.20
2017-12-23T00:22:44.333Z,22.33
2017-12-23T00:25:12.006Z,21.80
2017-12-23T00:27:39.545Z,22.40
2017-12-23T00:30:07.523Z,23.43
2017-12-23T00:32:35.052Z,22.90
2017-12-23T00:35:03.376Z,22.03
2017-12-23T00:37:30.959Z,21.90
2017-12-23T00:39:58.535Z,21.47
2017-12-23T00:42:26.125Z,22.07
2017-12-23T00:44:53.649Z,21.23
2017-12-23T00:47:21.192Z,19.90
2017-12-23T00:49:48.727Z,21.90
2017-12-23T00:52:16.260Z,20.20
2017-12-23T00:54:44.572Z,20.13
2017-12-23T00:57:12.107Z,20.63
2017-12-23T00:59:40.390Z,21.30
2017-12-23T01:02:07.938Z,20.30
2017-12-23T01:04:36.235Z,19.07
2017-12-23T01:07:04.524Z,18.77
2017-12-23T01:09:32.064Z,19.73
2017-12-23T01:12:00.348Z,20.50
2017-12-23T01:14:28.750Z,18.77
2017-12-23T01:16:56.323Z,20.60
2017-12-23T01:19:24.595Z,18.17
2017-12-23T01:21:52.163Z,19.50
2017-12-23T01:24:19.712Z,17.20
2017-12-23T01:26:47.259Z,19.13
2017-12-23T01:29:16.161Z,20.40
2017-12-23T01:31:43.784Z,18.05
2017-12-23T01:34:11.408Z,20.00
2017-12-23T01:36:38.970Z,19.60
2017-12-23T01:39:06.522Z,17.27
2017-12-23T01:41:34.052Z,18.00
2017-12-23T01:44:02.345Z,17.63
2017-12-23T01:46:29.867Z,17.50
2017-12-23T01:48:57.474Z,18.63
2017-12-23T01:51:25.047Z,18.20
2017-12-23T01:53:52.576Z,18.93
2017-12-23T01:56:20.861Z,18.33
2017-12-23T01:58:48.417Z,17.65
2017-12-23T02:01:16.695Z,17.10
2017-12-23T02:03:44.980Z,16.85
2017-12-23T02:06:13.315Z,17.33
2017-12-23T02:08:40.982Z,16.53
2017-12-23T02:11:08.615Z,16.73
2017-12-23T02:13:36.176Z,17.20
2017-12-23T02:16:03.700Z,17.45
2017-12-23T02:18:31.982Z,15.30
2017-12-23T02:21:00.287Z,15.47
2017-12-23T02:23:27.841Z,15.70
2017-12-23T02:25:55.371Z,15.70
2017-12-23T02:28:23.659Z,16.50
2017-12-23T02:30:51.956Z,16.63
2017-12-23T02:33:19.465Z,15.77
2017-12-23T02:35:47.013Z,16.60
2017-12-23T02:38:14.518Z,17.03
2017-12-23T02:40:42.811Z,16.13
2017-12-23T02:43:10.324Z,15.30
2017-12-23T02:45:37.955Z,16.40
2017-12-23T02:48:05.489Z,18.30
2017-12-23T02:50:33.070Z,17.03
2017-12-23T02:53:00.589Z,17.03
2017-12-23T02:55:28.187Z,18.57
2017-12-23T02:57:55.716Z,16.90
2017-12-23T03:00:23.991Z,17.50
2017-12-23T03:02:52.304Z,17.85
2017-12-23T03:05:19.828Z,19.40
2017-12-23T03:07:48.120Z,17.33
2017-12-23T03:10:16.512Z,18.30
2017-12-23T03:12:44.082Z,16.60
2017-12-23T03:15:11.603Z,18.43
2017-12-23T03:17:39.908Z,19.07
2017-12-23T03:20:07.416Z,18.17
2017-12-23T03:22:35.716Z,18.30
2017-12-23T03:25:03.328Z,18.87
2017-12-23T03:27:30.858Z,20.00
2017-12-23T03:29:58.372Z,18.13
2017-12-23T03:32:25.985Z,18.47
2017-12-23T03:34:53.552Z,18.67
2017-12-23T03:37:21.096Z,17.83
2017-12-23T03:39:49.376Z,19.23
2017-12-23T03:42:16.916Z,19.97
2017-12-23T03:44:45.224Z,20.63
2017-12-23T03:47:12.731Z,19.57
2017-12-23T03:49:41.111Z,19.50
2017-12-23T03:52:08.638Z,19.73
2017-12-23T03:54:36.191Z,19.30
2017-12-23T03:57:03.748Z,18.50
2017-12-23T03:59:31.305Z,19.60
2017-12-23T04:01:58.834Z,20.77
2017-12-23T04:04:27.130Z,19.23
2017-12-23T04:06:55.240Z,18.97
2017-12-23T04:09:22.772Z,19.03
2017-12-23T04:11:50.327Z,20.33
2017-12-23T04:14:17.869Z,19.10
2017-12-23T04:16:46.182Z,20.27
2017-12-23T04:19:13.728Z,19.40
2017-12-23T04:21:41.293Z,20.03
2017-12-23T04:24:08.844Z,20.10
2017-12-23T04:26:36.402Z,21.50
2017-12-23T04:29:03.987Z,19.83
2017-12-23T04:31:31.579Z,20.70
2017-12-23T04:33:59.143Z,18.77
2017-12-23T04:36:26.733Z,19.93
2017-12-23T04:38:55.090Z,20.37
2017-12-23T04:41:22.680Z,19.90
2017-12-23T04:43:50.244Z,20.43
2017-12-23T04:46:17.838Z,19.10
2017-12-23T04:48:45.382Z,19.13
2017-12-23T04:51:12.922Z,20.27
2017-12-23T04:53:40.444Z,17.00
2017-12-23T04:56:07.975Z,18.83
2017-12-23T04:58:35.518Z,18.90
2017-12-23T05:01:03.056Z,20.23
2017-12-23T05:03:31.438Z,19.47
2017-12-23T05:05:58.975Z,17.17
2017-12-23T05:08:26.579Z,18.60
2017-12-23T05:10:54.128Z,19.20
2017-12-23T05:13:21.654Z,17.53
2017-12-23T05:15:49.208Z,18.13
2017-12-23T05:18:16.821Z,18.37
2017-12-23T05:20:44.332Z,17.93
2017-12-23T05:23:11.936Z,18.30
2017-12-23T05:25:40.313Z,18.90
2017-12-23T05:28:07.856Z,16.87
2017-12-23T05:30:36.144Z,16.30
2017-12-23T05:33:03.716Z,17.10
2017-12-23T05:35:31.288Z,17.80
2017-12-23T05:37:58.836Z,17.53
2017-12-23T05:40:26.351Z,15.60
2017-12-23T05:42:53.952Z,16.57
2017-12-23T05:45:21.463Z,17.80
2017-12-23T05:47:48.996Z,16.03
2017-12-23T05:50:16.537Z,17.13
2017-12-23T05:52:44.095Z,17.43
2017-12-23T05:55:11.702Z,15.70
2017-12-23T05:57:40.753Z,15.90
2017-12-23T06:00:08.281Z,16.70
2017-12-23T06:02:36.593Z,16.20
2017-12-23T06:05:04.111Z,16.33
2017-12-23T06:07:31.652Z,14.63
2017-12-23T06:09:59.268Z,13.80
2017-12-23T06:12:26.858Z,16.40
2017-12-23T06:14:54.440Z,15.37
2017-12-23T06:17:22.022Z,16.63
2017-12-23T06:19:50.318Z,16.37
2017-12-23T06:22:17.893Z,16.13
2017-12-23T06:24:45.428Z,16.10
2017-12-23T06:27:13.729Z,16.03
2017-12-23T06:29:41.289Z,15.37
2017-12-23T06:32:08.795Z,16.60
2017-12-23T06:34:36.337Z,15.30
2017-12-23T06:37:03.873Z,17.17
2017-12-23T06:39:31.861Z,13.90
2017-12-23T06:41:59.510Z,15.40
2017-12-23T06:44:27.040Z,15.73
2017-12-23T06:46:55.316Z,16.10
2017-12-23T06:49:22.863Z,14.30
2017-12-23T06:51:51.189Z,14.30
2017-12-23T06:54:18.735Z,14.43
2017-12-23T06:56:46.241Z,13.30
2017-12-23T06:59:13.880Z,14.27
2017-12-23T07:01:41.526Z,13.10
2017-12-23T07:04:09.192Z,14.73
2017-12-23T07:06:36.861Z,13.27
2017-12-23T07:09:04.629Z,11.77
2017-12-23T07:11:32.692Z,11.63
2017-12-23T07:14:01.901Z,10.67
2017-12-23T07:16:30.328Z,10.87
2017-12-23T07:18:57.857Z,10.33
2017-12-23T07:21:25.462Z,10.17
2017-12-23T07:23:53.272Z,9.40
2017-12-23T07:26:21.345Z,8.93
2017-12-23T07:28:48.920Z,9.40
2017-12-23T07:31:16.594Z,9.67
2017-12-23T07:33:44.232Z,9.17
2017-12-23T07:36:11.839Z,9.87
2017-12-23T07:38:39.454Z,8.30
2017-12-23T07:41:07.835Z,9.07
2017-12-23T07:43:35.907Z,8.63
2017-12-23T07:46:03.923Z,9.00
2017-12-23T07:48:31.848Z,8.33
2017-12-23T07:50:59.402Z,7.10
2017-12-23T07:53:26.921Z,8.07
2017-12-23T07:55:54.953Z,7.63
2017-12-23T07:58:23.399Z,7.10
2017-12-23T08:00:51.705Z,8.20
2017-12-23T08:03:19.467Z,8.27
2017-12-23T08:05:47.938Z,7.07
2017-12-23T08:08:15.624Z,7.57
2017-12-23T08:10:43.188Z,7.63
2017-12-23T08:13:11.255Z,7.70
2017-12-23T08:15:39.732Z,7.30
2017-12-23T08:18:07.679Z,7.00
2017-12-23T08:20:35.463Z,7.90
2017-12-23T08:23:03.022Z,7.37
2017-12-23T08:25:31.143Z,6.80
2017-12-23T08:27:58.917Z,7.00
2017-12-23T08:30:26.705Z,7.23
2017-12-23T08:32:55.522Z,7.80
2017-12-23T08:35:23.598Z,6.50
2017-12-23T08:37:52.051Z,7.77
2017-12-23T08:40:20.664Z,7.83
2017-12-23T08:42:49.152Z,6.97
2017-12-23T08:45:17.782Z,6.80
2017-12-23T08:47:45.514Z,7.20
2017-12-23T08:50:13.044Z,7.07
2017-12-23T08:52:40.925Z,6.73
2017-12-23T08:55:08.895Z,7.80
2017-12-23T08:57:36.661Z,7.10
2017-12-23T09:00:04.327Z,8.40
2017-12-23T09:02:31.992Z,7.90
2017-12-23T09:05:01.295Z,7.40
2017-12-23T09:07:28.886Z,7.87
2017-12-23T09:09:56.718Z,7.23
2017-12-23T09:12:25.002Z,7.60
2017-12-23T09:14:52.765Z,7.33
2017-12-23T09:17:20.331Z,8.53
2017-12-23T09:19:47.917Z,8.17
2017-12-23T09:22:15.524Z,8.87
2017-12-23T09:24:43.980Z,8.10
2017-12-23T09:27:12.338Z,8.70
2017-12-23T09:29:39.946Z,9.47
2017-12-23T09:32:07.503Z,8.80
2017-12-23T09:34:35.811Z,9.37
2017-12-23T09:37:03.369Z,9.50
2017-12-23T09:39:30.903Z,9.60
2017-12-23T09:45:30.243Z,9.70
2017-12-23T09:47:57.836Z,10.60
2017-12-23T09:50:25.379Z,10.30
2017-12-23T09:52:52.934Z,10.30
2017-12-23T09:55:20.478Z,9.93
2017-12-23T09:57:49.507Z,11.97
2017-12-23T10:00:17.048Z,9.93
2017-12-23T10:02:44.600Z,9.53
2017-12-23T10:05:12.239Z,9.87
2017-12-23T10:07:40.867Z,10.37
2017-12-23T10:10:09.234Z,10.73
2017-12-23T10:12:36.907Z,9.83
2017-12-23T10:15:04.481Z,10.47
2017-12-23T10:17:32.007Z,10.93
2017-12-23T10:19:59.527Z,10.27
2017-12-23T10:22:27.172Z,11.90
2017-12-23T10:24:54.764Z,11.40
2017-12-23T10:27:22.272Z,12.60
2017-12-23T10:29:49.800Z,11.60
2017-12-23T10:32:18.110Z,11.90
2017-12-23T10:34:45.636Z,12.60
2017-12-23T10:37:13.941Z,11.80
2017-12-23T10:39:41.461Z,11.67
2017-12-23T10:42:10.606Z,12.03
2017-12-23T10:44:38.155Z,14.23
2017-12-23T10:47:05.695Z,12.60
2017-12-23T10:49:33.200Z,13.07
2017-12-23T10:52:00.735Z,12.50
2017-12-23T10:54:28.306Z,13.17
2017-12-23T10:56:55.921Z,15.73
2017-12-23T10:59:23.497Z,14.27
2017-12-23T11:01:52.220Z,14.07
2017-12-23T11:04:19.826Z,12.63
2017-12-23T11:06:47.574Z,13.50
2017-12-23T11:09:15.111Z,13.10
2017-12-23T11:11:42.695Z,12.70
2017-12-23T11:14:10.205Z,13.00
2017-12-23T11:16:37.751Z,14.00
2017-12-23T11:19:06.079Z,13.90
2017-12-23T11:21:33.674Z,15.23
2017-12-23T11:24:01.333Z,14.83
2017-12-23T11:26:28.910Z,14.97
2017-12-23T11:28:57.270Z,15.10
2017-12-23T11:31:24.862Z,14.47
2017-12-23T11:33:53.164Z,15.90
2017-12-23T11:36:20.701Z,17.23
2017-12-23T11:38:48.985Z,14.60
2017-12-23T11:41:16.563Z,17.17
2017-12-23T11:43:44.072Z,19.07
2017-12-23T11:46:12.381Z,20.00
2017-12-23T11:48:40.670Z,20.80
2017-12-23T11:51:08.239Z,19.97
2017-12-23T11:53:35.849Z,20.60
2017-12-23T11:56:03.440Z,21.40
2017-12-23T11:58:31.727Z,21.27
2017-12-23T12:00:59.304Z,24.50
2017-12-23T12:03:26.814Z,24.63
2017-12-23T12:05:56.257Z,25.80
2017-12-23T12:08:23.785Z,27.00
2017-12-23T12:10:51.370Z,27.50
2017-12-23T12:13:19.757Z,28.40
2017-12-23T12:15:47.280Z,28.80
2017-12-23T12:18:14.897Z,28.37
2017-12-23T12:20:42.453Z,30.73
2017-12-23T12:23:09.993Z,30.20
2017-12-23T12:25:38.275Z,30.53
2017-12-23T12:28:05.805Z,31.03
2017-12-23T12:30:33.417Z,33.10
2017-12-23T12:33:00.972Z,30.40
2017-12-23T12:35:28.525Z,31.37
2017-12-23T12:37:56.057Z,31.80
2017-12-23T12:40:23.650Z,30.13
2017-12-23T12:42:51.207Z,31.07
2017-12-23T12:45:18.720Z,31.20
2017-12-23T12:47:46.325Z,29.47
2017-12-23T12:50:13.894Z,29.27
2017-12-23T12:52:41.433Z,31.07
2017-12-23T12:55:09.843Z,31.37
2017-12-23T12:57:37.507Z,31.67
2017-12-23T13:00:05.033Z,33.07
2017-12-23T13:02:33.452Z,29.93
2017-12-23T13:05:01.313Z,31.93
2017-12-23T13:07:28.852Z,31.80
2017-12-23T13:09:57.164Z,31.50
2017-12-23T13:12:25.022Z,33.20
2017-12-23T13:14:52.566Z,30.00
2017-12-23T13:17:20.137Z,31.90
2017-12-23T13:19:47.743Z,28.83
2017-12-23T13:22:16.117Z,31.63
2017-12-23T13:24:43.758Z,30.50
2017-12-23T13:27:11.460Z,27.83
2017-12-23T13:29:39.059Z,30.37
2017-12-23T13:32:06.618Z,28.20
2017-12-23T13:34:34.297Z,29.10
2017-12-23T13:37:01.841Z,27.20
2017-12-23T13:39:29.386Z,26.00
2017-12-23T13:41:57.772Z,26.30
2017-12-23T13:44:26.071Z,23.80
2017-12-23T13:46:53.698Z,26.97
2017-12-23T13:49:22.531Z,24.80
2017-12-23T13:51:50.191Z,26.57
2017-12-23T13:54:17.957Z,25.93
2017-12-23T13:56:45.517Z,25.43
2017-12-23T13:59:13.187Z,26.17
2017-12-23T14:01:40.712Z,26.03
2017-12-23T14:04:09.142Z,24.37
2017-12-23T14:06:36.681Z,24.00
2017-12-23T14:09:04.209Z,22.30
2017-12-23T14:11:32.483Z,23.27
2017-12-23T14:14:00.794Z,24.87
2017-12-23T14:16:28.358Z,24.30
2017-12-23T14:18:55.897Z,21.90
2017-12-23T14:21:23.488Z,23.87
2017-12-23T14:23:51.022Z,20.80
2017-12-23T14:26:18.557Z,21.83
2017-12-23T14:28:46.154Z,20.70
2017-12-23T14:31:14.557Z,21.50
2017-12-23T14:33:42.100Z,21.83
2017-12-23T14:36:09.647Z,22.03
2017-12-23T14:38:37.177Z,22.87
2017-12-23T14:41:04.697Z,21.50
2017-12-23T14:43:32.256Z,22.50
2017-12-23T14:45:59.862Z,21.40
2017-12-23T14:48:29.402Z,20.30
2017-12-23T14:50:57.078Z,20.90
2017-12-23T14:53:24.600Z,20.17
2017-12-23T14:55:53.635Z,22.00
2017-12-23T14:58:21.173Z,18.53
2017-12-23T15:00:49.751Z,20.83
2017-12-23T15:03:18.037Z,21.40
2017-12-23T15:05:45.673Z,19.07
2017-12-23T15:08:14.102Z,20.20
2017-12-23T15:10:41.766Z,20.10
2017-12-23T15:13:09.304Z,19.73
2017-12-23T15:15:37.195Z,18.70
2017-12-23T15:18:05.066Z,20.43
2017-12-23T15:20:32.811Z,19.10
2017-12-23T15:23:00.532Z,19.73
2017-12-23T15:25:28.068Z,19.50
2017-12-23T15:27:55.606Z,20.67
2017-12-23T15:30:23.159Z,18.97
2017-12-23T15:32:51.549Z,21.00
2017-12-23T15:35:19.214Z,19.00
2017-12-23T15:37:47.702Z,18.20
2017-12-23T15:40:15.937Z,19.70
2017-12-23T15:42:43.737Z,19.97
2017-12-23T15:45:11.468Z,19.53
2017-12-23T15:47:39.883Z,19.70
2017-12-23T15:50:08.400Z,20.00
2017-12-23T15:52:36.027Z,21.30
2017-12-23T15:55:04.713Z,20.33
2017-12-23T15:57:32.376Z,19.00
2017-12-23T15:59:59.917Z,19.00
2017-12-23T16:02:27.473Z,19.90
2017-12-23T16:04:56.289Z,20.13
2017-12-23T16:07:23.959Z,19.20
2017-12-23T16:09:51.516Z,19.03
2017-12-23T16:12:19.177Z,20.20
2017-12-23T16:14:46.725Z,20.30
2017-12-23T16:17:14.288Z,20.37
2017-12-23T16:19:41.845Z,20.23
2017-12-23T16:22:09.506Z,20.70
2017-12-23T16:24:37.181Z,18.30
2017-12-23T16:27:04.848Z,19.30
2017-12-23T16:29:33.333Z,19.70
2017-12-23T16:32:01.007Z,20.10
2017-12-23T16:34:28.761Z,19.70
2017-12-23T16:36:56.421Z,20.60
2017-12-23T16:39:23.953Z,20.23
2017-12-23T16:41:52.873Z,21.77
2017-12-23T16:44:20.549Z,20.20
2017-12-23T16:46:48.106Z,21.20
2017-12-23T16:49:15.648Z,21.77
2017-12-23T16:51:43.172Z,19.93
2017-12-23T16:54:10.768Z,19.77
2017-12-23T16:56:38.953Z,20.30
2017-12-23T16:59:06.702Z,19.50
2017-12-23T17:01:34.295Z,18.60
2017-12-23T17:04:01.933Z,19.20
2017-12-23T17:06:29.612Z,19.27
2017-12-23T17:08:57.130Z,20.90
2017-12-23T17:11:25.651Z,20.27
2017-12-23T17:13:53.201Z,20.97
2017-12-23T17:16:20.755Z,19.80
2017-12-23T17:18:48.350Z,20.63
2017-12-23T17:21:15.999Z,19.80
2017-12-23T17:23:43.545Z,20.50
2017-12-23T17:26:11.616Z,20.50
2017-12-23T17:28:51.120Z,19.07
2017-12-23T17:31:18.702Z,21.20
2017-12-23T17:33:46.999Z,21.20
2017-12-23T17:36:14.552Z,18.60
2017-12-23T17:38:42.838Z,20.10
2017-12-23T17:41:10.580Z,20.77
2017-12-23T17:43:38.860Z,21.67
2017-12-23T17:46:07.186Z,22.47
2017-12-23T17:48:34.706Z,20.70
2017-12-23T17:51:03.013Z,19.23
2017-12-23T17:53:30.558Z,21.10
2017-12-23T17:55:58.110Z,20.97
2017-12-23T17:58:25.628Z,20.27
2017-12-23T18:00:53.240Z,20.93
2017-12-23T18:03:21.200Z,19.90
2017-12-23T18:05:48.773Z,18.47
2017-12-23T18:08:16.447Z,19.13
2017-12-23T18:10:43.970Z,18.80
2017-12-23T18:13:13.078Z,18.13
2017-12-23T18:15:41.673Z,18.17
2017-12-23T18:18:09.591Z,19.30
2017-12-23T18:20:38.584Z,18.30
2017-12-23T18:23:07.031Z,19.77
2017-12-23T18:25:35.152Z,21.00
2017-12-23T18:28:02.953Z,19.80
2017-12-23T18:30:30.636Z,20.17
2017-12-23T18:32:59.254Z,21.40
2017-12-23T18:35:27.238Z,19.67
2017-12-23T18:37:56.634Z,20.80
2017-12-23T18:40:24.485Z,20.80
2017-12-23T18:42:52.412Z,21.73
2017-12-23T18:45:20.654Z,22.50
2017-12-23T18:47:48.783Z,19.93
2017-12-23T18:50:16.569Z,22.83
2017-12-23T18:52:44.159Z,21.47
2017-12-23T18:55:12.070Z,24.80
2017-12-23T18:57:39.948Z,23.10
2017-12-23T19:00:07.876Z,22.60
2017-12-23T19:02:36.290Z,21.80
2017-12-23T19:05:03.843Z,20.47
2017-12-23T19:07:32.634Z,22.50
2017-12-23T19:10:00.522Z,22.30
2017-12-23T19:12:28.372Z,23.23
2017-12-23T19:14:56.351Z,23.13
2017-12-23T19:17:24.298Z,22.93
2017-12-23T19:19:52.793Z,23.67
2017-12-23T19:22:20.356Z,24.07
2017-12-23T19:24:48.118Z,21.30
2017-12-23T19:27:16.397Z,22.13
2017-12-23T19:29:44.047Z,22.50
2017-12-23T19:32:12.485Z,23.90
2017-12-23T19:34:40.400Z,22.10
2017-12-23T19:37:09.390Z,21.27
2017-12-23T19:39:37.496Z,22.10
2017-12-23T19:42:05.364Z,21.30
2017-12-23T19:44:33.623Z,21.97
2017-12-23T19:47:01.614Z,21.33
2017-12-23T19:49:30.616Z,19.57
2017-12-23T19:51:58.691Z,21.53
2017-12-23T19:54:27.373Z,20.60
2017-12-23T19:56:55.440Z,20.70
2017-12-23T19:59:24.202Z,21.00
2017-12-23T20:01:51.934Z,20.80
2017-12-23T20:04:19.584Z,21.23
2017-12-23T20:06:47.214Z,21.07
2017-12-23T20:09:14.960Z,19.10
2017-12-23T20:11:43.591Z,19.60
2017-12-23T20:14:11.856Z,20.80
2017-12-23T20:16:39.768Z,22.13
2017-12-23T20:19:08.390Z,21.37
2017-12-23T20:21:36.273Z,21.30
2017-12-23T20:24:04.624Z,21.53
2017-12-23T20:26:32.719Z,20.20
2017-12-23T20:29:00.672Z,21.83
2017-12-23T20:31:28.692Z,21.70
2017-12-23T20:33:56.559Z,21.27
2017-12-23T20:36:24.485Z,20.70
2017-12-23T20:38:52.676Z,20.80
2017-12-23T20:41:20.250Z,21.13
2017-12-23T20:43:47.801Z,21.17
2017-12-23T20:46:15.324Z,21.53
2017-12-23T20:48:43.724Z,22.43
2017-12-23T20:51:12.018Z,22.07
2017-12-23T20:53:39.577Z,23.83
2017-12-23T20:56:07.098Z,25.07
2017-12-23T20:58:35.421Z,23.77
2017-12-23T21:01:02.955Z,24.17
2017-12-23T21:03:30.526Z,25.43
2017-12-23T21:05:58.093Z,26.73
2017-12-23T21:08:25.634Z,23.90
2017-12-23T21:10:53.149Z,24.17
2017-12-23T21:13:20.673Z,25.47
2017-12-23T21:15:48.201Z,26.10
2017-12-23T21:18:16.512Z,22.83
2017-12-23T21:20:44.085Z,24.30
2017-12-23T21:23:11.732Z,24.27
2017-12-23T21:25:39.290Z,24.20
2017-12-23T21:28:06.856Z,23.10
2017-12-23T21:30:34.369Z,23.67
2017-12-23T21:33:01.965Z,23.60
2017-12-23T21:35:29.489Z,23.20
2017-12-23T21:37:57.145Z,23.90
2017-12-23T21:40:25.125Z,20.97
2017-12-23T21:42:53.556Z,21.20
2017-12-23T21:45:21.116Z,21.90
2017-12-23T21:47:48.717Z,20.03
2017-12-23T21:50:16.333Z,20.40
2017-12-23T21:52:44.208Z,20.07
2017-12-23T21:55:11.870Z,20.57
2017-12-23T21:57:39.533Z,19.17
2017-12-23T22:00:07.101Z,20.40
2017-12-23T22:02:34.962Z,19.53
2017-12-23T22:05:02.571Z,20.40
2017-12-23T22:07:30.088Z,21.60
2017-12-23T22:09:57.864Z,19.13
2017-12-23T22:12:25.399Z,19.73
2017-12-23T22:14:52.937Z,19.70
2017-12-23T22:17:21.240Z,20.10
2017-12-23T22:19:48.802Z,18.10
2017-12-23T22:22:16.335Z,21.67
2017-12-23T22:24:44.641Z,18.37
2017-12-23T22:27:12.245Z,19.40
2017-12-23T22:29:39.821Z,18.67
2017-12-23T22:32:07.427Z,19.57
2017-12-23T22:34:35.109Z,19.53
2017-12-23T22:37:02.652Z,18.33
2017-12-23T22:39:30.340Z,18.30
2017-12-23T22:41:57.968Z,18.37
2017-12-23T22:44:25.651Z,17.90
2017-12-23T22:46:53.441Z,18.90
2017-12-23T22:49:20.962Z,18.73
2017-12-23T22:51:48.530Z,19.70
2017-12-23T22:54:16.074Z,19.83
2017-12-23T22:56:43.656Z,20.43
2017-12-23T22:59:11.166Z,21.17
2017-12-23T23:01:38.718Z,21.20
2017-12-23T23:04:06.327Z,21.07
2017-12-23T23:06:33.893Z,21.13
2017-12-23T23:09:01.428Z,21.73
2017-12-23T23:11:29.829Z,20.20
2017-12-23T23:13:57.389Z,20.30
2017-12-23T23:16:24.954Z,21.97
2017-12-23T23:18:52.512Z,23.40
2017-12-23T23:21:20.089Z,22.90
2017-12-23T23:23:47.638Z,23.87
2017-12-23T23:26:15.153Z,24.60
2017-12-23T23:28:42.760Z,23.63
2017-12-23T23:31:10.309Z,24.13
2017-12-23T23:33:37.836Z,23.20
2017-12-23T23:36:05.354Z,22.47
2017-12-23T23:38:33.006Z,23.40
2017-12-23T23:41:00.577Z,22.93
2017-12-23T23:43:28.116Z,22.67
2017-12-23T23:45:55.650Z,22.50
2017-12-23T23:48:23.961Z,19.63
2017-12-23T23:50:51.480Z,20.30
2017-12-23T23:53:19.085Z,21.37
2017-12-23T23:55:46.640Z,20.43
2017-12-23T23:58:14.176Z,18.90
